Terminal Aerodrome Forecast
Issued by NWS

Home | Current Version | Previous Version | Text Only | Print | Product List | Glossary On
Versions: 1 2 3 4 5 6 7 8 9 10 11 12 13 14
000
FTUS44 KTSA 211400 AAA
TAFMLC
TAF AMD
KMLC 211406Z 2114/2212 17003KT 5SM -RA BR SCT020 OVC100
      TEMPO 2114/2116 2SM TSRA BR BKN020 OVC040CB
     FM211600 20005KT P6SM VCTS OVC015CB
     FM212200 27006KT P6SM BKN025
     FM220500 34005KT P6SM SCT050=

USA.gov is the U.S. government's official web portal to all federal, state and local government web resources and services.